createdAt,value
2019-03-28T00:02:25.648Z,101239.61
2019-03-28T00:04:53.153Z,101244.72
2019-03-28T00:07:23.886Z,101236.38
2019-03-28T00:09:48.182Z,101243.02
2019-03-28T00:12:15.711Z,101234.66
2019-03-28T00:14:43.389Z,101241.44
2019-03-28T00:17:10.858Z,101233.16
2019-03-28T00:19:38.989Z,101238.95
2019-03-28T00:22:06.520Z,101233.05
2019-03-28T00:24:34.034Z,101241.77
2019-03-28T00:27:01.606Z,101240.01
2019-03-28T00:29:29.075Z,101237.06
2019-03-28T00:31:56.636Z,101242.14
2019-03-28T00:34:24.119Z,101237.38
2019-03-28T00:36:51.754Z,101239.45
2019-03-28T00:39:19.243Z,101240.28
2019-03-28T00:41:46.721Z,101244.94
2019-03-28T00:44:16.871Z,101242.43
2019-03-28T00:46:44.434Z,101243.59
2019-03-28T00:49:11.943Z,101245.70
2019-03-28T00:51:39.609Z,101251.51
2019-03-28T00:54:07.142Z,101247.34
2019-03-28T00:56:46.596Z,101248.17
2019-03-28T00:59:02.172Z,101250.19
2019-03-28T01:01:29.663Z,101245.52
2019-03-28T01:03:57.134Z,101243.00
2019-03-28T01:06:24.661Z,101243.54
2019-03-28T01:08:52.155Z,101241.97
2019-03-28T01:11:19.683Z,101239.70
2019-03-28T01:13:47.150Z,101240.23
2019-03-28T01:16:14.608Z,101241.10
2019-03-28T01:18:44.003Z,101237.70
2019-03-28T01:21:11.468Z,101238.70
2019-03-28T01:23:38.955Z,101229.11
2019-03-28T01:26:06.445Z,101222.67
2019-03-28T01:28:33.955Z,101217.52
2019-03-28T01:31:01.491Z,101220.80
2019-03-28T01:33:28.965Z,101217.44
2019-03-28T01:35:56.456Z,101223.98
2019-03-28T01:38:23.950Z,101219.70
2019-03-28T01:40:51.452Z,101219.81
2019-03-28T01:43:19.022Z,101212.92
2019-03-28T01:45:46.650Z,101219.64
2019-03-28T01:48:14.170Z,101214.19
2019-03-28T01:50:41.668Z,101213.55
2019-03-28T01:53:09.160Z,101210.11
2019-03-28T01:55:36.628Z,101217.67
2019-03-28T01:58:05.220Z,101209.02
2019-03-28T02:00:32.109Z,101214.05
2019-03-28T02:02:59.642Z,101217.53
2019-03-28T02:05:27.203Z,101218.14
2019-03-28T02:07:54.708Z,101218.62
2019-03-28T02:10:22.188Z,101212.34
2019-03-28T02:12:49.706Z,101209.02
2019-03-28T02:15:17.192Z,101210.21
2019-03-28T02:17:44.683Z,101208.56
2019-03-28T02:20:12.173Z,101206.38
2019-03-28T02:22:39.674Z,101207.64
2019-03-28T02:25:07.135Z,101207.45
2019-03-28T02:27:34.628Z,101210.30
2019-03-28T02:30:02.619Z,101214.10
2019-03-28T02:32:30.128Z,101207.67
2019-03-28T02:34:57.607Z,101214.05
2019-03-28T02:37:25.070Z,101215.91
2019-03-28T02:39:52.552Z,101210.75
2019-03-28T02:42:20.040Z,101219.36
2019-03-28T02:44:47.553Z,101218.40
2019-03-28T02:47:15.038Z,101215.80
2019-03-28T02:49:42.528Z,101211.95
2019-03-28T02:52:10.001Z,101215.98
2019-03-28T02:54:37.518Z,101223.13
2019-03-28T02:57:04.998Z,101224.83
2019-03-28T02:59:32.509Z,101230.59
2019-03-28T03:02:00.001Z,101222.23
2019-03-28T03:04:27.510Z,101223.28
2019-03-28T03:06:54.986Z,101230.08
2019-03-28T03:09:22.471Z,101229.14
2019-03-28T03:11:49.970Z,101231.95
2019-03-28T03:14:17.443Z,101227.21
2019-03-28T03:16:44.927Z,101233.95
2019-03-28T03:19:13.061Z,101233.28
2019-03-28T03:21:40.601Z,101231.75
2019-03-28T03:24:08.069Z,101232.69
2019-03-28T03:26:35.567Z,101229.05
2019-03-28T03:29:03.543Z,101241.70
2019-03-28T03:31:30.967Z,101238.06
2019-03-28T03:33:58.467Z,101229.84
2019-03-28T03:36:25.995Z,101239.21
2019-03-28T03:38:53.481Z,101234.66
2019-03-28T03:41:20.948Z,101244.86
2019-03-28T03:43:49.667Z,101247.02
2019-03-28T03:46:16.680Z,101244.98
2019-03-28T03:48:44.185Z,101249.88
2019-03-28T03:51:12.220Z,101255.03
2019-03-28T03:53:39.722Z,101247.99
2019-03-28T03:56:07.190Z,101256.19
2019-03-28T03:58:34.672Z,101249.66
2019-03-28T04:01:02.166Z,101257.12
2019-03-28T04:03:29.800Z,101244.02
2019-03-28T04:05:57.171Z,101253.28
2019-03-28T04:08:24.668Z,101251.16
2019-03-28T04:10:52.125Z,101250.68
2019-03-28T04:13:19.624Z,101254.41
2019-03-28T04:15:47.138Z,101250.48
2019-03-28T04:18:14.618Z,101253.23
2019-03-28T04:20:42.124Z,101255.22
2019-03-28T04:23:09.650Z,101260.57
2019-03-28T04:25:39.766Z,101265.72
2019-03-28T04:28:06.258Z,101264.27
2019-03-28T04:30:33.753Z,101268.50
2019-03-28T04:33:01.225Z,101266.18
2019-03-28T04:35:28.732Z,101261.73
2019-03-28T04:37:56.196Z,101261.30
2019-03-28T04:40:23.704Z,101264.85
2019-03-28T04:42:51.175Z,101266.70
2019-03-28T04:45:18.707Z,101271.91
2019-03-28T04:47:46.193Z,101271.47
2019-03-28T04:50:15.536Z,101275.72
2019-03-28T04:52:43.030Z,101275.27
2019-03-28T04:55:10.497Z,101279.94
2019-03-28T04:57:40.898Z,101279.16
2019-03-28T05:00:05.532Z,101289.69
2019-03-28T05:02:33.015Z,101282.61
2019-03-28T05:05:00.472Z,101285.02
2019-03-28T05:07:27.977Z,101282.44
2019-03-28T05:09:55.472Z,101282.39
2019-03-28T05:12:23.838Z,101286.36
2019-03-28T05:14:51.406Z,101284.97
2019-03-28T05:17:18.893Z,101292.06
2019-03-28T05:19:46.350Z,101292.68
2019-03-28T05:22:13.891Z,101288.12
2019-03-28T05:24:41.481Z,101287.02
2019-03-28T05:27:08.963Z,101286.30
2019-03-28T05:29:36.461Z,101292.81
2019-03-28T05:32:04.139Z,101292.46
2019-03-28T05:34:31.619Z,101290.77
2019-03-28T05:36:59.100Z,101291.89
2019-03-28T05:39:26.586Z,101290.41
2019-03-28T05:41:54.078Z,101294.41
2019-03-28T05:44:21.586Z,101293.17
2019-03-28T05:46:49.079Z,101302.19
2019-03-28T05:49:16.568Z,101306.12
2019-03-28T05:51:44.054Z,101304.11
2019-03-28T05:54:11.591Z,101298.48
2019-03-28T05:56:39.053Z,101304.62
2019-03-28T05:59:11.003Z,101305.66
2019-03-28T06:01:35.195Z,101305.23
2019-03-28T06:04:02.689Z,101299.95
2019-03-28T06:06:30.143Z,101309.51
2019-03-28T06:08:57.627Z,101308.74
2019-03-28T06:11:25.095Z,101303.97
2019-03-28T06:13:52.614Z,101303.95
2019-03-28T06:16:20.091Z,101303.55
2019-03-28T06:18:47.609Z,101307.97
2019-03-28T06:21:15.087Z,101311.92
2019-03-28T06:23:42.564Z,101310.66
2019-03-28T06:26:10.043Z,101308.02
2019-03-28T06:28:37.530Z,101315.33
2019-03-28T06:31:04.992Z,101306.93
2019-03-28T06:33:32.462Z,101309.08
2019-03-28T06:36:02.227Z,101311.90
2019-03-28T06:38:27.486Z,101308.70
2019-03-28T06:40:54.961Z,101307.08
2019-03-28T06:43:22.474Z,101307.35
2019-03-28T06:45:49.987Z,101307.76
2019-03-28T06:48:17.456Z,101306.58
2019-03-28T06:50:44.970Z,101307.45
2019-03-28T06:53:12.634Z,101304.41
2019-03-28T06:55:39.996Z,101303.15
2019-03-28T06:58:07.514Z,101302.75
2019-03-28T07:00:35.004Z,101303.98
2019-03-28T07:03:02.488Z,101300.78
2019-03-28T07:05:29.979Z,101299.99
2019-03-28T07:07:58.317Z,101307.64
2019-03-28T07:10:25.022Z,101308.22
2019-03-28T07:12:52.507Z,101316.41
2019-03-28T07:15:20.592Z,101310.25
2019-03-28T07:17:47.606Z,101310.06
2019-03-28T07:20:15.083Z,101304.59
2019-03-28T07:22:45.831Z,101307.14
2019-03-28T07:25:11.038Z,101311.84
2019-03-28T07:27:38.555Z,101304.14
2019-03-28T07:30:06.052Z,101306.75
2019-03-28T07:32:33.512Z,101304.25
2019-03-28T07:35:01.871Z,101310.56
2019-03-28T07:37:29.449Z,101312.80
2019-03-28T07:39:56.965Z,101315.50
2019-03-28T07:42:24.479Z,101314.11
2019-03-28T07:44:51.977Z,101313.06
2019-03-28T07:47:19.461Z,101308.50
2019-03-28T07:49:47.947Z,101316.30
2019-03-28T07:52:15.412Z,101319.76
2019-03-28T07:54:42.888Z,101319.02
2019-03-28T07:57:10.388Z,101325.59
2019-03-28T07:59:37.903Z,101328.33
2019-03-28T08:02:05.386Z,101333.44
2019-03-28T08:04:32.914Z,101332.59
2019-03-28T08:07:00.397Z,101334.06
2019-03-28T08:09:36.414Z,101332.62
2019-03-28T08:11:56.525Z,101339.14
2019-03-28T08:14:24.012Z,101333.33
2019-03-28T08:16:51.515Z,101339.73
2019-03-28T08:19:19.030Z,101341.53
2019-03-28T08:21:46.520Z,101343.11
2019-03-28T08:24:14.018Z,101348.70
2019-03-28T08:26:41.500Z,101354.27
2019-03-28T08:29:08.970Z,101351.70
2019-03-28T08:31:36.463Z,101358.03
2019-03-28T08:34:03.948Z,101352.19
2019-03-28T08:36:31.422Z,101358.23
2019-03-28T08:38:58.951Z,101363.16
2019-03-28T08:41:26.446Z,101364.76
2019-03-28T08:43:54.985Z,101369.37
2019-03-28T08:46:22.472Z,101377.83
2019-03-28T08:48:49.986Z,101374.34
2019-03-28T08:51:17.469Z,101376.05
2019-03-28T08:53:44.944Z,101373.25
2019-03-28T08:56:12.441Z,101379.74
2019-03-28T08:58:39.938Z,101377.17
2019-03-28T09:01:07.433Z,101381.39
2019-03-28T09:03:34.931Z,101382.94
2019-03-28T09:06:02.407Z,101390.55
2019-03-28T09:08:29.916Z,101390.20
2019-03-28T09:10:57.438Z,101398.25
2019-03-28T09:13:24.924Z,101397.34
2019-03-28T09:15:52.399Z,101397.02
2019-03-28T09:18:19.918Z,101392.16
2019-03-28T09:20:48.346Z,101395.02
2019-03-28T09:23:15.892Z,101391.67
2019-03-28T09:25:43.448Z,101388.38
2019-03-28T09:28:11.017Z,101382.50
2019-03-28T09:30:47.897Z,101382.31
2019-03-28T09:33:07.038Z,101377.70
2019-03-28T09:35:34.549Z,101380.97
2019-03-28T09:38:02.076Z,101379.27
2019-03-28T09:40:29.553Z,101376.21
2019-03-28T09:42:57.053Z,101377.78
2019-03-28T09:45:24.578Z,101375.17
2019-03-28T09:47:52.086Z,101374.02
2019-03-28T09:50:20.539Z,101371.47
2019-03-28T09:52:48.024Z,101371.00
2019-03-28T09:55:18.665Z,101377.59
2019-03-28T09:57:43.055Z,101375.44
2019-03-28T10:00:10.562Z,101371.61
2019-03-28T10:02:38.092Z,101372.05
2019-03-28T10:05:06.535Z,101364.95
2019-03-28T10:07:34.007Z,101367.05
2019-03-28T10:10:01.937Z,101373.84
2019-03-28T10:12:29.067Z,101375.50
2019-03-28T10:14:56.578Z,101368.81
2019-03-28T10:17:24.075Z,101375.75
2019-03-28T10:19:51.581Z,101364.30
2019-03-28T10:22:22.154Z,101365.80
2019-03-28T10:24:46.597Z,101369.64
2019-03-28T10:27:14.103Z,101365.32
2019-03-28T10:29:41.594Z,101369.61
2019-03-28T10:32:09.117Z,101367.09
2019-03-28T10:34:36.598Z,101365.11
2019-03-28T10:37:04.118Z,101366.80
2019-03-28T10:39:31.611Z,101365.36
2019-03-28T10:41:59.461Z,101366.53
2019-03-28T10:44:27.000Z,101357.30
2019-03-28T10:46:54.483Z,101360.61
2019-03-28T10:49:22.002Z,101361.88
2019-03-28T10:51:49.479Z,101364.41
2019-03-28T10:54:20.508Z,101359.17
2019-03-28T10:56:51.670Z,101366.55
2019-03-28T10:59:22.759Z,101365.45
2019-03-28T11:01:49.174Z,101365.86
2019-03-28T11:04:07.167Z,101365.59
2019-03-28T11:06:34.678Z,101360.58
2019-03-28T11:09:02.245Z,101364.66
2019-03-28T11:11:29.727Z,101356.46
2019-03-28T11:13:57.224Z,101356.08
2019-03-28T11:16:24.728Z,101360.33
2019-03-28T11:18:53.353Z,101356.88
2019-03-28T11:21:21.323Z,101353.05
2019-03-28T11:23:48.815Z,101353.48
2019-03-28T11:26:16.338Z,101355.52
2019-03-28T11:28:43.799Z,101359.19
2019-03-28T11:31:11.371Z,101358.22
2019-03-28T11:33:38.869Z,101355.91
2019-03-28T11:36:06.383Z,101354.39
2019-03-28T11:38:33.858Z,101352.89
2019-03-28T11:41:01.342Z,101358.52
2019-03-28T11:43:28.863Z,101363.66
2019-03-28T11:45:56.436Z,101365.77
2019-03-28T11:48:23.925Z,101363.74
2019-03-28T11:50:51.402Z,101360.11
2019-03-28T11:53:18.875Z,101360.97
2019-03-28T11:55:48.839Z,101362.34
2019-03-28T11:58:15.851Z,101362.75
2019-03-28T12:00:43.376Z,101364.23
2019-03-28T12:03:10.871Z,101365.52
2019-03-28T12:05:38.332Z,101369.31
2019-03-28T12:08:05.799Z,101363.53
2019-03-28T12:10:33.584Z,101362.45
2019-03-28T12:13:01.098Z,101357.75
2019-03-28T12:15:28.763Z,101359.41
2019-03-28T12:20:32.369Z,101350.24
2019-03-28T12:22:59.893Z,101355.25
2019-03-28T12:25:27.375Z,101345.92
2019-03-28T12:27:54.850Z,101347.11
2019-03-28T12:30:23.338Z,101347.12
2019-03-28T12:32:50.828Z,101342.50
2019-03-28T12:35:18.302Z,101342.45
2019-03-28T12:37:45.810Z,101345.79
2019-03-28T12:40:13.339Z,101340.73
2019-03-28T12:42:40.830Z,101335.61
2019-03-28T12:45:08.323Z,101326.25
2019-03-28T12:47:42.420Z,101332.58
2019-03-28T12:50:03.447Z,101336.26
2019-03-28T12:52:30.967Z,101335.91
2019-03-28T12:54:58.447Z,101336.59
2019-03-28T12:57:25.960Z,101343.50
2019-03-28T12:59:54.263Z,101339.06
2019-03-28T13:02:28.605Z,101339.80
2019-03-28T13:04:50.583Z,101333.98
2019-03-28T13:07:18.162Z,101334.27
2019-03-28T13:09:45.708Z,101336.75
2019-03-28T13:12:13.211Z,101329.70
2019-03-28T13:14:40.703Z,101325.75
2019-03-28T13:17:10.134Z,101323.93
2019-03-28T13:19:37.641Z,101320.09
2019-03-28T13:22:05.100Z,101320.42
2019-03-28T13:24:32.604Z,101319.16
2019-03-28T13:27:00.702Z,101320.42
2019-03-28T13:29:28.272Z,101321.57
2019-03-28T13:31:55.809Z,101318.74
2019-03-28T13:34:23.250Z,101323.14
2019-03-28T13:36:50.708Z,101312.75
2019-03-28T13:39:18.154Z,101311.33
2019-03-28T13:41:46.209Z,101305.20
2019-03-28T13:44:13.093Z,101313.95
2019-03-28T13:46:40.564Z,101308.27
2019-03-28T13:49:08.037Z,101305.58
2019-03-28T13:51:35.488Z,101309.06
2019-03-28T13:54:02.961Z,101305.55
2019-03-28T13:56:30.455Z,101307.34
2019-03-28T13:58:57.901Z,101304.16
2019-03-28T14:01:26.333Z,101300.48
2019-03-28T14:03:54.989Z,101305.20
2019-03-28T14:06:22.447Z,101301.00
2019-03-28T14:08:49.901Z,101300.94
2019-03-28T14:11:17.494Z,101298.55
2019-03-28T14:13:44.960Z,101294.41
2019-03-28T14:16:12.392Z,101296.12
2019-03-28T14:18:39.864Z,101297.51
2019-03-28T14:21:07.306Z,101296.23
2019-03-28T14:23:34.794Z,101287.72
2019-03-28T14:26:02.299Z,101289.38
2019-03-28T14:28:29.774Z,101295.70
2019-03-28T14:30:57.227Z,101288.85
2019-03-28T14:33:27.223Z,101293.45
2019-03-28T14:35:52.188Z,101290.16
2019-03-28T14:38:20.208Z,101286.41
2019-03-28T14:40:47.670Z,101293.99
2019-03-28T14:43:15.183Z,101288.70
2019-03-28T14:45:42.653Z,101287.55
2019-03-28T14:48:10.111Z,101285.45
2019-03-28T14:50:37.587Z,101285.16
2019-03-28T14:53:05.016Z,101282.80
2019-03-28T14:55:32.481Z,101279.73
2019-03-28T14:57:59.942Z,101277.44
2019-03-28T15:00:42.427Z,101278.87
2019-03-28T15:03:09.915Z,101278.08
2019-03-28T15:05:37.362Z,101286.64
2019-03-28T15:08:04.828Z,101281.80
2019-03-28T15:10:32.293Z,101279.12
2019-03-28T15:12:59.798Z,101280.42
2019-03-28T15:15:27.281Z,101279.09
2019-03-28T15:17:54.705Z,101272.02
2019-03-28T15:20:22.212Z,101273.78
2019-03-28T15:22:49.644Z,101274.30
2019-03-28T15:25:17.097Z,101275.72
2019-03-28T15:27:44.599Z,101275.16
2019-03-28T15:30:12.047Z,101271.53
2019-03-28T15:32:39.535Z,101273.66
2019-03-28T15:35:06.960Z,101274.87
2019-03-28T15:37:34.472Z,101266.97
2019-03-28T15:40:01.924Z,101271.82
2019-03-28T15:42:29.404Z,101260.47
2019-03-28T15:44:57.189Z,101267.55
2019-03-28T15:47:24.650Z,101267.75
2019-03-28T15:49:52.130Z,101270.77
2019-03-28T15:52:19.608Z,101268.26
2019-03-28T15:54:47.101Z,101266.70
2019-03-28T15:57:14.563Z,101265.59
2019-03-28T15:59:42.023Z,101265.77
2019-03-28T16:02:09.567Z,101266.98
2019-03-28T16:04:37.059Z,101265.82
2019-03-28T16:07:04.534Z,101269.34
2019-03-28T16:09:32.038Z,101257.66
2019-03-28T16:12:02.842Z,101267.07
2019-03-28T16:14:27.777Z,101263.81
2019-03-28T16:16:55.413Z,101272.23
2019-03-28T16:19:22.750Z,101270.44
2019-03-28T16:21:50.206Z,101266.49
2019-03-28T16:24:17.707Z,101261.78
2019-03-28T16:26:45.154Z,101267.35
2019-03-28T16:29:12.615Z,101263.31
2019-03-28T16:31:40.051Z,101261.05
2019-03-28T16:34:07.702Z,101264.68
2019-03-28T16:36:35.019Z,101259.63
2019-03-28T16:39:02.459Z,101262.15
2019-03-28T16:41:29.936Z,101261.63
2019-03-28T16:43:59.157Z,101260.20
2019-03-28T16:46:25.928Z,101262.12
2019-03-28T16:48:53.537Z,101270.02
2019-03-28T16:51:20.977Z,101265.70
2019-03-28T16:53:48.538Z,101267.56
2019-03-28T16:56:15.993Z,101261.38
2019-03-28T16:58:43.539Z,101267.24
2019-03-28T17:01:10.954Z,101266.72
2019-03-28T17:03:38.410Z,101257.74
2019-03-28T17:06:05.897Z,101266.66
2019-03-28T17:08:33.562Z,101266.31
2019-03-28T17:11:01.111Z,101264.57
2019-03-28T17:13:28.975Z,101266.72
2019-03-28T17:15:56.453Z,101272.36
2019-03-28T17:18:24.264Z,101269.38
2019-03-28T17:20:51.755Z,101264.09
2019-03-28T17:23:19.185Z,101258.30
2019-03-28T17:25:46.648Z,101271.20
2019-03-28T17:28:14.107Z,101268.91
2019-03-28T17:30:41.553Z,101266.46
2019-03-28T17:33:09.026Z,101264.92
2019-03-28T17:35:36.501Z,101268.55
2019-03-28T17:38:03.922Z,101269.45
2019-03-28T17:40:31.395Z,101267.04
2019-03-28T17:42:59.500Z,101268.32
2019-03-28T17:45:27.605Z,101269.38
2019-03-28T17:47:55.069Z,101270.99
2019-03-28T17:50:22.513Z,101271.37
2019-03-28T17:52:49.991Z,101273.72
2019-03-28T17:55:19.730Z,101273.72
2019-03-28T17:57:45.186Z,101274.10
2019-03-28T18:00:12.674Z,101275.79
2019-03-28T18:02:40.565Z,101270.50
2019-03-28T18:05:09.666Z,101274.05
2019-03-28T18:07:36.699Z,101270.94
2019-03-28T18:10:04.996Z,101270.47
2019-03-28T18:12:32.461Z,101268.67
2019-03-28T18:15:00.293Z,101264.23
2019-03-28T18:17:27.717Z,101270.77
2019-03-28T18:19:55.209Z,101269.05
2019-03-28T18:22:22.663Z,101269.52
2019-03-28T18:24:50.266Z,101268.55
2019-03-28T18:27:17.832Z,101276.69
2019-03-28T18:29:45.338Z,101275.52
2019-03-28T18:32:13.169Z,101279.41
2019-03-28T18:34:40.657Z,101280.97
2019-03-28T18:37:08.099Z,101280.59
2019-03-28T18:39:35.585Z,101280.97
2019-03-28T18:42:03.056Z,101281.41
2019-03-28T18:44:30.833Z,101282.45
2019-03-28T18:46:58.302Z,101282.31
2019-03-28T18:49:25.884Z,101287.17
2019-03-28T18:51:53.365Z,101280.52
2019-03-28T18:54:20.942Z,101280.53
2019-03-28T18:56:48.366Z,101281.64
2019-03-28T18:59:15.793Z,101281.69
2019-03-28T19:01:43.253Z,101276.62
2019-03-28T19:04:10.691Z,101282.55
2019-03-28T19:06:38.153Z,101280.61
2019-03-28T19:09:05.750Z,101282.03
2019-03-28T19:11:33.298Z,101275.89
2019-03-28T19:14:01.298Z,101275.54
2019-03-28T19:16:28.752Z,101277.22
2019-03-28T19:18:56.351Z,101269.50
2019-03-28T19:21:23.867Z,101279.19
2019-03-28T19:23:51.337Z,101275.05
2019-03-28T19:26:18.786Z,101283.19
2019-03-28T19:28:46.259Z,101276.42
2019-03-28T19:31:13.774Z,101276.64
2019-03-28T19:33:41.317Z,101279.87
2019-03-28T19:36:08.751Z,101272.44
2019-03-28T19:38:36.311Z,101276.46
2019-03-28T19:41:03.819Z,101272.80
2019-03-28T19:43:31.776Z,101272.80
2019-03-28T19:45:59.231Z,101269.86
2019-03-28T19:48:26.653Z,101265.18
2019-03-28T19:50:54.201Z,101263.55
2019-03-28T19:53:21.643Z,101266.77
2019-03-28T19:55:49.111Z,101265.48
2019-03-28T19:58:16.606Z,101256.30
2019-03-28T20:00:44.255Z,101259.94
2019-03-28T20:03:11.615Z,101265.70
2019-03-28T20:05:47.639Z,101262.73
2019-03-28T20:08:15.637Z,101263.98
2019-03-28T20:10:34.123Z,101262.81
2019-03-28T20:13:05.272Z,101266.21
2019-03-28T20:15:29.958Z,101266.78
2019-03-28T20:17:57.488Z,101271.23
2019-03-28T20:20:24.933Z,101265.00
2019-03-28T20:22:52.436Z,101269.50
2019-03-28T20:25:19.903Z,101266.55
2019-03-28T20:27:47.339Z,101268.83
2019-03-28T20:30:14.826Z,101268.05
2019-03-28T20:32:42.291Z,101279.78
2019-03-28T20:35:10.694Z,101273.67
2019-03-28T20:37:37.922Z,101269.27
2019-03-28T20:40:04.798Z,101267.69
2019-03-28T20:42:32.883Z,101264.51
2019-03-28T20:45:00.373Z,101264.25
2019-03-28T20:47:27.895Z,101264.89
2019-03-28T20:49:55.366Z,101267.86
2019-03-28T20:52:22.875Z,101271.03
2019-03-28T20:54:50.342Z,101267.42
2019-03-28T20:57:18.532Z,101260.75
2019-03-28T20:59:46.888Z,101262.80
2019-03-28T21:02:13.565Z,101261.32
2019-03-28T21:04:41.160Z,101264.50
2019-03-28T21:07:08.677Z,101262.46
2019-03-28T21:09:36.355Z,101266.11
2019-03-28T21:12:03.977Z,101262.75
2019-03-28T21:14:31.407Z,101268.94
2019-03-28T21:16:58.906Z,101271.44
2019-03-28T21:19:26.438Z,101263.33
2019-03-28T21:21:55.273Z,101277.63
2019-03-28T21:24:23.675Z,101272.70
2019-03-28T21:26:51.616Z,101275.51
2019-03-28T21:29:19.104Z,101274.09
2019-03-28T21:31:50.195Z,101275.69
2019-03-28T21:34:16.343Z,101278.30
2019-03-28T21:36:44.107Z,101276.60
2019-03-28T21:39:11.799Z,101274.61
2019-03-28T21:41:39.334Z,101273.06
2019-03-28T21:44:07.093Z,101274.24
2019-03-28T21:46:34.733Z,101278.03
2019-03-28T21:49:02.427Z,101277.59
2019-03-28T21:51:30.213Z,101280.00
2019-03-28T21:53:58.288Z,101279.42
2019-03-28T21:56:25.322Z,101277.09
2019-03-28T21:58:52.767Z,101275.77
2019-03-28T22:01:20.201Z,101276.58
2019-03-28T22:03:47.639Z,101277.74
2019-03-28T22:06:15.343Z,101275.58
2019-03-28T22:08:42.809Z,101282.75
2019-03-28T22:11:10.322Z,101280.29
2019-03-28T22:13:37.777Z,101281.42
2019-03-28T22:16:07.637Z,101281.24
2019-03-28T22:18:33.812Z,101278.22
2019-03-28T22:21:00.282Z,101286.13
2019-03-28T22:23:27.786Z,101284.22
2019-03-28T22:25:55.259Z,101279.02
2019-03-28T22:28:22.700Z,101279.44
2019-03-28T22:30:50.202Z,101280.45
2019-03-28T22:33:17.679Z,101275.45
2019-03-28T22:35:45.153Z,101280.13
2019-03-28T22:38:12.591Z,101277.58
2019-03-28T22:40:40.058Z,101270.70
2019-03-28T22:43:07.517Z,101270.75
2019-03-28T22:45:35.541Z,101268.97
2019-03-28T22:48:10.779Z,101270.64
2019-03-28T22:50:30.434Z,101268.86
2019-03-28T22:52:57.921Z,101267.97
2019-03-28T22:55:25.793Z,101270.77
2019-03-28T22:57:54.156Z,101263.40
2019-03-28T23:00:20.738Z,101266.58
2019-03-28T23:02:49.022Z,101269.30
2019-03-28T23:05:16.580Z,101274.78
2019-03-28T23:07:44.060Z,101272.16
2019-03-28T23:10:11.565Z,101269.88
2019-03-28T23:12:39.010Z,101264.86
2019-03-28T23:15:06.875Z,101267.39
2019-03-28T23:17:34.414Z,101275.47
2019-03-28T23:20:01.850Z,101273.78
2019-03-28T23:22:29.311Z,101272.78
2019-03-28T23:24:56.794Z,101274.83
2019-03-28T23:27:24.292Z,101271.09
2019-03-28T23:29:51.715Z,101270.34
2019-03-28T23:32:19.151Z,101269.38
2019-03-28T23:34:46.622Z,101271.13
2019-03-28T23:37:24.222Z,101267.86
2019-03-28T23:39:41.633Z,101259.75
2019-03-28T23:42:09.078Z,101263.11
2019-03-28T23:44:36.697Z,101261.03
2019-03-28T23:47:04.153Z,101260.45
2019-03-28T23:49:32.551Z,101268.89
2019-03-28T23:52:00.066Z,101260.91
2019-03-28T23:54:27.534Z,101261.39
2019-03-28T23:56:54.962Z,101267.92
2019-03-28T23:59:22.392Z,101261.03
